sensor_id;sensor_type;location;lat;lon;timestamp;P1;durP1;ratioP1;P2;durP2;ratioP2
61572;SDS011;47465;43.094;12.434;2022-08-19T00:00:48;22.77;;;7.55;;
61572;SDS011;47465;43.094;12.434;2022-08-19T00:03:15;24.73;;;8.27;;
61572;SDS011;47465;43.094;12.434;2022-08-19T00:05:41;22.80;;;6.75;;
61572;SDS011;47465;43.094;12.434;2022-08-19T00:08:07;25.80;;;7.55;;
61572;SDS011;47465;43.094;12.434;2022-08-19T00:10:33;23.30;;;7.82;;
61572;SDS011;47465;43.094;12.434;2022-08-19T00:12:59;21.90;;;7.78;;
61572;SDS011;47465;43.094;12.434;2022-08-19T00:15:27;22.83;;;7.13;;
61572;SDS011;47465;43.094;12.434;2022-08-19T00:17:53;20.85;;;7.75;;
61572;SDS011;47465;43.094;12.434;2022-08-19T00:20:21;21.45;;;7.05;;
61572;SDS011;47465;43.094;12.434;2022-08-19T00:22:47;27.87;;;7.03;;
61572;SDS011;47465;43.094;12.434;2022-08-19T00:25:13;16.52;;;6.80;;
61572;SDS011;47465;43.094;12.434;2022-08-19T00:27:40;25.05;;;7.22;;
61572;SDS011;47465;43.094;12.434;2022-08-19T00:30:06;24.48;;;7.93;;
61572;SDS011;47465;43.094;12.434;2022-08-19T00:32:36;24.13;;;7.53;;
61572;SDS011;47465;43.094;12.434;2022-08-19T00:35:04;28.58;;;7.85;;
61572;SDS011;47465;43.094;12.434;2022-08-19T00:37:31;21.95;;;8.25;;
61572;SDS011;47465;43.094;12.434;2022-08-19T00:39:58;21.98;;;7.65;;
61572;SDS011;47465;43.094;12.434;2022-08-19T00:42:24;27.63;;;8.52;;
61572;SDS011;47465;43.094;12.434;2022-08-19T00:44:53;20.95;;;8.00;;
61572;SDS011;47465;43.094;12.434;2022-08-19T00:47:19;26.42;;;8.23;;
61572;SDS011;47465;43.094;12.434;2022-08-19T00:49:48;25.23;;;7.47;;
61572;SDS011;47465;43.094;12.434;2022-08-19T00:52:18;27.23;;;7.32;;
61572;SDS011;47465;43.094;12.434;2022-08-19T00:54:48;21.42;;;7.97;;
61572;SDS011;47465;43.094;12.434;2022-08-19T00:57:16;23.33;;;8.32;;
61572;SDS011;47465;43.094;12.434;2022-08-19T01:02:11;29.05;;;8.45;;
61572;SDS011;47465;43.094;12.434;2022-08-19T01:04:37;14.27;;;6.75;;
61572;SDS011;47465;43.094;12.434;2022-08-19T01:07:05;16.10;;;5.55;;
61572;SDS011;47465;43.094;12.434;2022-08-19T01:09:32;18.73;;;6.25;;
61572;SDS011;47465;43.094;12.434;2022-08-19T01:11:59;16.42;;;5.35;;
61572;SDS011;47465;43.094;12.434;2022-08-19T01:14:25;11.63;;;5.10;;
61572;SDS011;47465;43.094;12.434;2022-08-19T01:16:51;14.68;;;5.40;;
61572;SDS011;47465;43.094;12.434;2022-08-19T01:19:22;12.90;;;5.03;;
61572;SDS011;47465;43.094;12.434;2022-08-19T01:21:55;11.82;;;5.53;;
61572;SDS011;47465;43.094;12.434;2022-08-19T01:24:27;18.80;;;5.50;;
61572;SDS011;47465;43.094;12.434;2022-08-19T01:26:56;16.00;;;5.72;;
61572;SDS011;47465;43.094;12.434;2022-08-19T01:29:22;12.57;;;5.50;;
61572;SDS011;47465;43.094;12.434;2022-08-19T01:31:48;13.63;;;5.03;;
61572;SDS011;47465;43.094;12.434;2022-08-19T01:34:18;10.00;;;4.70;;
61572;SDS011;47465;43.094;12.434;2022-08-19T01:36:45;16.52;;;5.35;;
61572;SDS011;47465;43.094;12.434;2022-08-19T01:39:13;10.85;;;4.93;;
61572;SDS011;47465;43.094;12.434;2022-08-19T01:41:43;10.30;;;4.32;;
61572;SDS011;47465;43.094;12.434;2022-08-19T01:44:09;7.22;;;3.97;;
61572;SDS011;47465;43.094;12.434;2022-08-19T01:46:35;9.18;;;3.92;;
61572;SDS011;47465;43.094;12.434;2022-08-19T01:49:02;11.80;;;4.13;;
61572;SDS011;47465;43.094;12.434;2022-08-19T01:53:57;8.60;;;3.42;;
61572;SDS011;47465;43.094;12.434;2022-08-19T01:56:23;9.15;;;3.70;;
61572;SDS011;47465;43.094;12.434;2022-08-19T01:58:51;10.40;;;3.63;;
61572;SDS011;47465;43.094;12.434;2022-08-19T02:01:21;12.30;;;3.92;;
61572;SDS011;47465;43.094;12.434;2022-08-19T02:03:47;14.50;;;4.88;;
61572;SDS011;47465;43.094;12.434;2022-08-19T02:06:13;13.35;;;4.50;;
61572;SDS011;47465;43.094;12.434;2022-08-19T02:08:39;12.35;;;4.55;;
61572;SDS011;47465;43.094;12.434;2022-08-19T02:11:06;13.18;;;4.70;;
61572;SDS011;47465;43.094;12.434;2022-08-19T02:13:32;11.32;;;4.57;;
61572;SDS011;47465;43.094;12.434;2022-08-19T02:16:01;10.95;;;4.38;;
61572;SDS011;47465;43.094;12.434;2022-08-19T02:18:27;15.18;;;5.10;;
61572;SDS011;47465;43.094;12.434;2022-08-19T02:20:53;16.20;;;5.40;;
61572;SDS011;47465;43.094;12.434;2022-08-19T02:23:20;14.90;;;5.05;;
61572;SDS011;47465;43.094;12.434;2022-08-19T02:25:46;14.90;;;5.65;;
61572;SDS011;47465;43.094;12.434;2022-08-19T02:28:13;16.70;;;5.50;;
61572;SDS011;47465;43.094;12.434;2022-08-19T02:30:40;16.65;;;5.60;;
61572;SDS011;47465;43.094;12.434;2022-08-19T02:33:08;11.73;;;4.97;;
61572;SDS011;47465;43.094;12.434;2022-08-19T02:35:34;14.25;;;5.38;;
61572;SDS011;47465;43.094;12.434;2022-08-19T02:38:00;16.20;;;5.35;;
61572;SDS011;47465;43.094;12.434;2022-08-19T02:40:49;17.95;;;5.95;;
61572;SDS011;47465;43.094;12.434;2022-08-19T02:43:18;16.58;;;5.70;;
61572;SDS011;47465;43.094;12.434;2022-08-19T02:45:46;16.27;;;5.75;;
61572;SDS011;47465;43.094;12.434;2022-08-19T02:48:15;14.77;;;5.85;;
61572;SDS011;47465;43.094;12.434;2022-08-19T02:50:42;21.45;;;6.13;;
61572;SDS011;47465;43.094;12.434;2022-08-19T02:53:08;17.08;;;6.13;;
61572;SDS011;47465;43.094;12.434;2022-08-19T02:55:34;23.17;;;6.53;;
61572;SDS011;47465;43.094;12.434;2022-08-19T02:58:07;16.63;;;6.05;;
61572;SDS011;47465;43.094;12.434;2022-08-19T03:00:33;13.55;;;5.88;;
61572;SDS011;47465;43.094;12.434;2022-08-19T03:02:59;18.65;;;6.30;;
61572;SDS011;47465;43.094;12.434;2022-08-19T03:05:27;20.58;;;6.05;;
61572;SDS011;47465;43.094;12.434;2022-08-19T03:07:57;15.23;;;6.28;;
61572;SDS011;47465;43.094;12.434;2022-08-19T03:10:24;17.98;;;6.53;;
61572;SDS011;47465;43.094;12.434;2022-08-19T03:12:50;21.45;;;6.78;;
61572;SDS011;47465;43.094;12.434;2022-08-19T03:15:16;23.55;;;6.50;;
61572;SDS011;47465;43.094;12.434;2022-08-19T03:17:42;19.25;;;6.18;;
61572;SDS011;47465;43.094;12.434;2022-08-19T03:20:08;20.08;;;7.03;;
61572;SDS011;47465;43.094;12.434;2022-08-19T03:22:36;18.48;;;6.38;;
61572;SDS011;47465;43.094;12.434;2022-08-19T03:25:02;18.55;;;6.80;;
61572;SDS011;47465;43.094;12.434;2022-08-19T03:27:29;18.00;;;5.85;;
61572;SDS011;47465;43.094;12.434;2022-08-19T03:29:55;16.23;;;6.40;;
61572;SDS011;47465;43.094;12.434;2022-08-19T03:32:21;14.63;;;5.90;;
61572;SDS011;47465;43.094;12.434;2022-08-19T03:34:48;18.27;;;6.88;;
61572;SDS011;47465;43.094;12.434;2022-08-19T03:37:14;18.73;;;5.85;;
61572;SDS011;47465;43.094;12.434;2022-08-19T03:39:42;21.90;;;6.28;;
61572;SDS011;47465;43.094;12.434;2022-08-19T03:42:08;22.13;;;6.22;;
61572;SDS011;47465;43.094;12.434;2022-08-19T03:44:34;17.67;;;6.07;;
61572;SDS011;47465;43.094;12.434;2022-08-19T03:47:03;19.23;;;6.43;;
61572;SDS011;47465;43.094;12.434;2022-08-19T03:49:31;19.80;;;6.72;;
61572;SDS011;47465;43.094;12.434;2022-08-19T03:52:00;19.63;;;6.72;;
61572;SDS011;47465;43.094;12.434;2022-08-19T03:54:26;14.02;;;5.93;;
61572;SDS011;47465;43.094;12.434;2022-08-19T03:56:55;17.48;;;6.63;;
61572;SDS011;47465;43.094;12.434;2022-08-19T03:59:23;22.80;;;7.05;;
61572;SDS011;47465;43.094;12.434;2022-08-19T04:01:51;18.30;;;6.95;;
61572;SDS011;47465;43.094;12.434;2022-08-19T04:04:18;20.88;;;6.82;;
61572;SDS011;47465;43.094;12.434;2022-08-19T04:06:44;21.83;;;7.00;;
61572;SDS011;47465;43.094;12.434;2022-08-19T04:09:12;23.48;;;7.95;;
61572;SDS011;47465;43.094;12.434;2022-08-19T04:11:39;22.15;;;6.95;;
61572;SDS011;47465;43.094;12.434;2022-08-19T04:14:08;15.32;;;7.50;;
61572;SDS011;47465;43.094;12.434;2022-08-19T04:16:36;20.25;;;7.07;;
61572;SDS011;47465;43.094;12.434;2022-08-19T04:19:02;22.20;;;7.70;;
61572;SDS011;47465;43.094;12.434;2022-08-19T04:21:29;28.00;;;7.47;;
61572;SDS011;47465;43.094;12.434;2022-08-19T04:23:56;20.27;;;7.20;;
61572;SDS011;47465;43.094;12.434;2022-08-19T04:26:23;23.70;;;8.38;;
61572;SDS011;47465;43.094;12.434;2022-08-19T04:28:50;24.10;;;8.73;;
61572;SDS011;47465;43.094;12.434;2022-08-19T04:31:19;18.40;;;7.57;;
61572;SDS011;47465;43.094;12.434;2022-08-19T04:33:47;16.95;;;8.02;;
61572;SDS011;47465;43.094;12.434;2022-08-19T04:36:15;20.13;;;7.40;;
61572;SDS011;47465;43.094;12.434;2022-08-19T04:38:42;20.15;;;7.60;;
61572;SDS011;47465;43.094;12.434;2022-08-19T04:41:08;17.92;;;7.25;;
61572;SDS011;47465;43.094;12.434;2022-08-19T04:44:08;21.15;;;7.28;;
61572;SDS011;47465;43.094;12.434;2022-08-19T04:46:35;17.65;;;7.45;;
61572;SDS011;47465;43.094;12.434;2022-08-19T04:49:03;22.02;;;7.43;;
61572;SDS011;47465;43.094;12.434;2022-08-19T04:51:31;19.25;;;7.10;;
61572;SDS011;47465;43.094;12.434;2022-08-19T04:53:57;14.95;;;5.68;;
61572;SDS011;47465;43.094;12.434;2022-08-19T04:56:25;14.82;;;6.07;;
61572;SDS011;47465;43.094;12.434;2022-08-19T04:58:52;16.38;;;6.22;;
61572;SDS011;47465;43.094;12.434;2022-08-19T05:01:21;14.75;;;6.28;;
61572;SDS011;47465;43.094;12.434;2022-08-19T05:03:49;19.23;;;6.85;;
61572;SDS011;47465;43.094;12.434;2022-08-19T05:06:15;14.35;;;6.10;;
61572;SDS011;47465;43.094;12.434;2022-08-19T05:08:43;15.57;;;7.18;;
61572;SDS011;47465;43.094;12.434;2022-08-19T05:11:11;23.45;;;7.60;;
61572;SDS011;47465;43.094;12.434;2022-08-19T05:13:38;15.68;;;6.82;;
61572;SDS011;47465;43.094;12.434;2022-08-19T05:16:05;17.98;;;6.38;;
61572;SDS011;47465;43.094;12.434;2022-08-19T05:18:33;21.27;;;6.75;;
61572;SDS011;47465;43.094;12.434;2022-08-19T05:21:33;15.40;;;6.47;;
61572;SDS011;47465;43.094;12.434;2022-08-19T05:24:34;16.40;;;6.55;;
61572;SDS011;47465;43.094;12.434;2022-08-19T05:27:01;17.25;;;7.00;;
61572;SDS011;47465;43.094;12.434;2022-08-19T05:29:29;23.83;;;7.03;;
61572;SDS011;47465;43.094;12.434;2022-08-19T05:31:57;28.20;;;7.65;;
61572;SDS011;47465;43.094;12.434;2022-08-19T05:34:24;14.38;;;6.50;;
61572;SDS011;47465;43.094;12.434;2022-08-19T05:36:52;21.75;;;6.95;;
61572;SDS011;47465;43.094;12.434;2022-08-19T05:39:21;21.13;;;7.38;;
61572;SDS011;47465;43.094;12.434;2022-08-19T05:41:50;15.88;;;6.97;;
61572;SDS011;47465;43.094;12.434;2022-08-19T05:44:19;18.73;;;6.60;;
61572;SDS011;47465;43.094;12.434;2022-08-19T05:46:47;15.15;;;6.82;;
61572;SDS011;47465;43.094;12.434;2022-08-19T05:49:14;18.52;;;6.63;;
61572;SDS011;47465;43.094;12.434;2022-08-19T05:51:41;19.02;;;6.30;;
61572;SDS011;47465;43.094;12.434;2022-08-19T05:54:08;15.30;;;6.55;;
61572;SDS011;47465;43.094;12.434;2022-08-19T05:56:41;21.15;;;6.60;;
61572;SDS011;47465;43.094;12.434;2022-08-19T05:59:10;18.95;;;6.30;;
61572;SDS011;47465;43.094;12.434;2022-08-19T06:04:03;19.27;;;6.88;;
61572;SDS011;47465;43.094;12.434;2022-08-19T06:06:29;16.60;;;6.30;;
61572;SDS011;47465;43.094;12.434;2022-08-19T06:08:55;16.58;;;6.05;;
61572;SDS011;47465;43.094;12.434;2022-08-19T06:11:24;13.50;;;6.32;;
61572;SDS011;47465;43.094;12.434;2022-08-19T06:14:00;14.93;;;5.57;;
61572;SDS011;47465;43.094;12.434;2022-08-19T06:16:32;15.38;;;5.88;;
61572;SDS011;47465;43.094;12.434;2022-08-19T06:19:00;12.95;;;5.30;;
61572;SDS011;47465;43.094;12.434;2022-08-19T06:21:28;15.82;;;5.40;;
61572;SDS011;47465;43.094;12.434;2022-08-19T06:23:55;11.02;;;4.97;;
61572;SDS011;47465;43.094;12.434;2022-08-19T06:26:22;12.35;;;5.15;;
61572;SDS011;47465;43.094;12.434;2022-08-19T06:28:48;18.20;;;6.35;;
61572;SDS011;47465;43.094;12.434;2022-08-19T06:31:15;16.83;;;5.32;;
61572;SDS011;47465;43.094;12.434;2022-08-19T06:33:44;17.83;;;5.67;;
61572;SDS011;47465;43.094;12.434;2022-08-19T06:36:16;14.67;;;5.70;;
61572;SDS011;47465;43.094;12.434;2022-08-19T06:38:43;15.75;;;6.00;;
61572;SDS011;47465;43.094;12.434;2022-08-19T06:41:09;19.73;;;6.10;;
61572;SDS011;47465;43.094;12.434;2022-08-19T06:43:35;15.55;;;5.78;;
61572;SDS011;47465;43.094;12.434;2022-08-19T06:46:01;17.15;;;5.22;;
61572;SDS011;47465;43.094;12.434;2022-08-19T06:48:28;14.00;;;5.38;;
61572;SDS011;47465;43.094;12.434;2022-08-19T06:50:56;14.10;;;5.85;;
61572;SDS011;47465;43.094;12.434;2022-08-19T06:53:22;16.27;;;5.68;;
61572;SDS011;47465;43.094;12.434;2022-08-19T06:55:49;19.58;;;5.53;;
61572;SDS011;47465;43.094;12.434;2022-08-19T06:58:22;12.80;;;5.25;;
61572;SDS011;47465;43.094;12.434;2022-08-19T07:00:48;13.73;;;5.15;;
61572;SDS011;47465;43.094;12.434;2022-08-19T07:03:16;14.45;;;5.47;;
61572;SDS011;47465;43.094;12.434;2022-08-19T07:05:46;12.30;;;5.20;;
61572;SDS011;47465;43.094;12.434;2022-08-19T07:08:13;13.18;;;5.32;;
61572;SDS011;47465;43.094;12.434;2022-08-19T07:10:42;17.30;;;5.50;;
61572;SDS011;47465;43.094;12.434;2022-08-19T07:13:09;17.05;;;5.60;;
61572;SDS011;47465;43.094;12.434;2022-08-19T07:15:35;15.48;;;5.20;;
61572;SDS011;47465;43.094;12.434;2022-08-19T07:18:02;12.95;;;4.97;;
61572;SDS011;47465;43.094;12.434;2022-08-19T07:20:29;12.15;;;4.80;;
61572;SDS011;47465;43.094;12.434;2022-08-19T07:22:54;10.82;;;4.40;;
61572;SDS011;47465;43.094;12.434;2022-08-19T07:25:22;12.70;;;4.80;;
61572;SDS011;47465;43.094;12.434;2022-08-19T07:27:48;11.10;;;5.20;;
61572;SDS011;47465;43.094;12.434;2022-08-19T07:30:15;9.40;;;5.15;;
61572;SDS011;47465;43.094;12.434;2022-08-19T07:32:42;9.45;;;4.70;;
61572;SDS011;47465;43.094;12.434;2022-08-19T07:35:08;11.40;;;5.28;;
61572;SDS011;47465;43.094;12.434;2022-08-19T07:37:35;13.38;;;5.63;;
61572;SDS011;47465;43.094;12.434;2022-08-19T07:40:02;15.82;;;4.70;;
61572;SDS011;47465;43.094;12.434;2022-08-19T07:42:30;11.98;;;4.97;;
61572;SDS011;47465;43.094;12.434;2022-08-19T07:44:56;12.93;;;5.40;;
61572;SDS011;47465;43.094;12.434;2022-08-19T07:47:23;13.73;;;5.03;;
61572;SDS011;47465;43.094;12.434;2022-08-19T07:49:49;13.02;;;4.90;;
61572;SDS011;47465;43.094;12.434;2022-08-19T07:52:16;15.43;;;4.60;;
61572;SDS011;47465;43.094;12.434;2022-08-19T07:54:42;13.38;;;4.03;;
61572;SDS011;47465;43.094;12.434;2022-08-19T07:57:08;14.80;;;4.22;;
61572;SDS011;47465;43.094;12.434;2022-08-19T07:59:36;12.25;;;4.53;;
61572;SDS011;47465;43.094;12.434;2022-08-19T08:02:02;11.73;;;4.30;;
61572;SDS011;47465;43.094;12.434;2022-08-19T08:04:29;12.25;;;4.78;;
61572;SDS011;47465;43.094;12.434;2022-08-19T08:07:30;11.23;;;4.13;;
61572;SDS011;47465;43.094;12.434;2022-08-19T08:10:30;12.10;;;3.85;;
61572;SDS011;47465;43.094;12.434;2022-08-19T08:12:57;12.85;;;3.85;;
61572;SDS011;47465;43.094;12.434;2022-08-19T08:15:23;11.30;;;4.13;;
61572;SDS011;47465;43.094;12.434;2022-08-19T08:17:49;14.02;;;4.20;;
61572;SDS011;47465;43.094;12.434;2022-08-19T08:20:15;13.20;;;4.00;;
61572;SDS011;47465;43.094;12.434;2022-08-19T08:22:42;13.80;;;4.45;;
61572;SDS011;47465;43.094;12.434;2022-08-19T08:25:43;7.72;;;4.10;;
61572;SDS011;47465;43.094;12.434;2022-08-19T08:28:09;12.90;;;4.30;;
61572;SDS011;47465;43.094;12.434;2022-08-19T08:30:35;10.80;;;4.10;;
61572;SDS011;47465;43.094;12.434;2022-08-19T08:33:02;7.97;;;3.85;;
61572;SDS011;47465;43.094;12.434;2022-08-19T08:35:29;11.90;;;4.20;;
61572;SDS011;47465;43.094;12.434;2022-08-19T08:37:55;13.90;;;4.43;;
61572;SDS011;47465;43.094;12.434;2022-08-19T08:40:22;13.05;;;4.93;;
61572;SDS011;47465;43.094;12.434;2022-08-19T08:42:57;7.90;;;4.40;;
61572;SDS011;47465;43.094;12.434;2022-08-19T08:45:30;11.98;;;5.03;;
61572;SDS011;47465;43.094;12.434;2022-08-19T08:48:02;10.57;;;4.60;;
61572;SDS011;47465;43.094;12.434;2022-08-19T08:50:38;18.67;;;5.07;;
61572;SDS011;47465;43.094;12.434;2022-08-19T08:53:07;10.02;;;4.60;;
61572;SDS011;47465;43.094;12.434;2022-08-19T08:55:35;8.07;;;3.73;;
61572;SDS011;47465;43.094;12.434;2022-08-19T08:58:04;9.07;;;3.75;;
61572;SDS011;47465;43.094;12.434;2022-08-19T09:00:36;11.35;;;4.25;;
61572;SDS011;47465;43.094;12.434;2022-08-19T09:03:04;9.57;;;4.03;;
61572;SDS011;47465;43.094;12.434;2022-08-19T09:05:36;8.02;;;3.90;;
61572;SDS011;47465;43.094;12.434;2022-08-19T09:08:13;6.38;;;4.00;;
61572;SDS011;47465;43.094;12.434;2022-08-19T09:10:46;8.23;;;3.40;;
61572;SDS011;47465;43.094;12.434;2022-08-19T09:13:20;6.18;;;3.28;;
61572;SDS011;47465;43.094;12.434;2022-08-19T09:15:52;8.25;;;3.70;;
61572;SDS011;47465;43.094;12.434;2022-08-19T09:18:26;7.03;;;3.35;;
61572;SDS011;47465;43.094;12.434;2022-08-19T09:21:05;9.32;;;3.45;;
61572;SDS011;47465;43.094;12.434;2022-08-19T09:23:33;6.90;;;3.65;;
61572;SDS011;47465;43.094;12.434;2022-08-19T09:25:59;4.47;;;2.85;;
61572;SDS011;47465;43.094;12.434;2022-08-19T09:28:27;5.30;;;2.72;;
61572;SDS011;47465;43.094;12.434;2022-08-19T09:30:54;4.50;;;3.03;;
61572;SDS011;47465;43.094;12.434;2022-08-19T09:33:20;6.80;;;2.88;;
61572;SDS011;47465;43.094;12.434;2022-08-19T09:35:46;5.22;;;2.80;;
61572;SDS011;47465;43.094;12.434;2022-08-19T09:38:12;6.38;;;3.22;;
61572;SDS011;47465;43.094;12.434;2022-08-19T09:40:38;4.47;;;2.97;;
61572;SDS011;47465;43.094;12.434;2022-08-19T09:43:04;5.15;;;2.45;;
61572;SDS011;47465;43.094;12.434;2022-08-19T09:45:31;7.20;;;2.63;;
61572;SDS011;47465;43.094;12.434;2022-08-19T09:47:57;5.53;;;2.60;;
61572;SDS011;47465;43.094;12.434;2022-08-19T09:50:23;6.18;;;2.58;;
61572;SDS011;47465;43.094;12.434;2022-08-19T09:52:50;4.70;;;3.05;;
61572;SDS011;47465;43.094;12.434;2022-08-19T09:55:17;7.97;;;2.90;;
61572;SDS011;47465;43.094;12.434;2022-08-19T09:57:43;4.45;;;2.78;;
61572;SDS011;47465;43.094;12.434;2022-08-19T10:00:09;8.23;;;3.00;;
61572;SDS011;47465;43.094;12.434;2022-08-19T10:02:37;7.05;;;2.90;;
61572;SDS011;47465;43.094;12.434;2022-08-19T10:05:04;7.03;;;3.20;;
61572;SDS011;47465;43.094;12.434;2022-08-19T10:08:05;8.93;;;3.40;;
61572;SDS011;47465;43.094;12.434;2022-08-19T10:10:34;6.55;;;2.88;;
61572;SDS011;47465;43.094;12.434;2022-08-19T10:13:00;6.50;;;2.75;;
61572;SDS011;47465;43.094;12.434;2022-08-19T10:15:26;6.07;;;2.60;;
61572;SDS011;47465;43.094;12.434;2022-08-19T10:17:52;5.47;;;2.95;;
61572;SDS011;47465;43.094;12.434;2022-08-19T10:20:18;5.45;;;2.92;;
61572;SDS011;47465;43.094;12.434;2022-08-19T10:22:44;6.53;;;3.15;;
61572;SDS011;47465;43.094;12.434;2022-08-19T10:25:11;5.28;;;2.90;;
61572;SDS011;47465;43.094;12.434;2022-08-19T10:27:39;7.05;;;3.17;;
61572;SDS011;47465;43.094;12.434;2022-08-19T10:30:06;6.13;;;3.17;;
61572;SDS011;47465;43.094;12.434;2022-08-19T10:32:34;4.13;;;2.72;;
61572;SDS011;47465;43.094;12.434;2022-08-19T10:35:00;9.35;;;3.15;;
61572;SDS011;47465;43.094;12.434;2022-08-19T10:37:26;7.95;;;3.25;;
61572;SDS011;47465;43.094;12.434;2022-08-19T10:39:52;9.80;;;3.15;;
61572;SDS011;47465;43.094;12.434;2022-08-19T10:42:20;8.30;;;3.00;;
61572;SDS011;47465;43.094;12.434;2022-08-19T10:44:46;10.15;;;3.17;;
61572;SDS011;47465;43.094;12.434;2022-08-19T10:47:12;8.88;;;3.30;;
61572;SDS011;47465;43.094;12.434;2022-08-19T10:49:38;8.85;;;3.30;;
61572;SDS011;47465;43.094;12.434;2022-08-19T11:11:50;8.57;;;3.67;;
61572;SDS011;47465;43.094;12.434;2022-08-19T11:14:18;5.57;;;3.50;;
61572;SDS011;47465;43.094;12.434;2022-08-19T11:16:58;6.75;;;3.50;;
61572;SDS011;47465;43.094;12.434;2022-08-19T11:19:26;8.32;;;3.75;;
61572;SDS011;47465;43.094;12.434;2022-08-19T11:21:59;10.38;;;3.50;;
61572;SDS011;47465;43.094;12.434;2022-08-19T11:24:39;5.35;;;3.08;;
61572;SDS011;47465;43.094;12.434;2022-08-19T11:27:09;7.70;;;3.38;;
61572;SDS011;47465;43.094;12.434;2022-08-19T11:29:37;6.18;;;3.70;;
61572;SDS011;47465;43.094;12.434;2022-08-19T11:32:05;7.82;;;3.33;;
61572;SDS011;47465;43.094;12.434;2022-08-19T11:34:50;5.45;;;3.53;;
61572;SDS011;47465;43.094;12.434;2022-08-19T11:37:16;7.18;;;3.40;;
61572;SDS011;47465;43.094;12.434;2022-08-19T11:39:46;5.85;;;3.55;;
61572;SDS011;47465;43.094;12.434;2022-08-19T11:42:13;7.43;;;3.50;;
61572;SDS011;47465;43.094;12.434;2022-08-19T11:45:16;6.18;;;3.85;;
61572;SDS011;47465;43.094;12.434;2022-08-19T11:47:43;8.53;;;3.50;;
61572;SDS011;47465;43.094;12.434;2022-08-19T11:50:09;8.32;;;3.70;;
61572;SDS011;47465;43.094;12.434;2022-08-19T11:52:35;7.53;;;3.83;;
61572;SDS011;47465;43.094;12.434;2022-08-19T11:55:02;6.05;;;3.45;;
61572;SDS011;47465;43.094;12.434;2022-08-19T11:57:28;6.45;;;3.30;;
61572;SDS011;47465;43.094;12.434;2022-08-19T11:59:54;5.97;;;3.50;;
61572;SDS011;47465;43.094;12.434;2022-08-19T12:02:21;8.05;;;3.40;;
61572;SDS011;47465;43.094;12.434;2022-08-19T12:04:48;7.13;;;3.38;;
61572;SDS011;47465;43.094;12.434;2022-08-19T12:07:14;7.53;;;3.33;;
61572;SDS011;47465;43.094;12.434;2022-08-19T12:09:40;6.55;;;3.42;;
61572;SDS011;47465;43.094;12.434;2022-08-19T12:12:08;7.35;;;3.25;;
61572;SDS011;47465;43.094;12.434;2022-08-19T12:14:34;4.55;;;3.13;;
61572;SDS011;47465;43.094;12.434;2022-08-19T12:17:00;6.25;;;3.30;;
61572;SDS011;47465;43.094;12.434;2022-08-19T12:19:28;4.63;;;3.05;;
61572;SDS011;47465;43.094;12.434;2022-08-19T12:21:58;4.68;;;2.85;;
61572;SDS011;47465;43.094;12.434;2022-08-19T12:24:26;8.35;;;3.60;;
61572;SDS011;47465;43.094;12.434;2022-08-19T12:26:52;14.15;;;3.83;;
61572;SDS011;47465;43.094;12.434;2022-08-19T12:29:20;7.65;;;3.20;;
61572;SDS011;47465;43.094;12.434;2022-08-19T12:31:50;5.18;;;3.00;;
61572;SDS011;47465;43.094;12.434;2022-08-19T12:34:16;8.27;;;3.35;;
61572;SDS011;47465;43.094;12.434;2022-08-19T12:36:44;7.05;;;3.55;;
61572;SDS011;47465;43.094;12.434;2022-08-19T12:39:10;4.75;;;3.42;;
61572;SDS011;47465;43.094;12.434;2022-08-19T12:41:36;5.03;;;3.28;;
61572;SDS011;47465;43.094;12.434;2022-08-19T12:44:03;6.57;;;3.30;;
61572;SDS011;47465;43.094;12.434;2022-08-19T12:46:29;6.88;;;3.63;;
61572;SDS011;47465;43.094;12.434;2022-08-19T12:48:56;4.53;;;3.05;;
61572;SDS011;47465;43.094;12.434;2022-08-19T12:51:22;6.43;;;3.20;;
61572;SDS011;47465;43.094;12.434;2022-08-19T12:53:50;7.57;;;3.55;;
61572;SDS011;47465;43.094;12.434;2022-08-19T12:56:16;5.23;;;3.57;;
61572;SDS011;47465;43.094;12.434;2022-08-19T12:58:44;5.00;;;3.10;;
61572;SDS011;47465;43.094;12.434;2022-08-19T13:01:11;5.15;;;3.35;;
61572;SDS011;47465;43.094;12.434;2022-08-19T13:03:38;5.90;;;3.40;;
61572;SDS011;47465;43.094;12.434;2022-08-19T13:06:05;8.27;;;3.63;;
61572;SDS011;47465;43.094;12.434;2022-08-19T13:08:31;5.72;;;3.28;;
61572;SDS011;47465;43.094;12.434;2022-08-19T13:10:59;5.13;;;3.10;;
61572;SDS011;47465;43.094;12.434;2022-08-19T13:13:32;6.15;;;3.40;;
61572;SDS011;47465;43.094;12.434;2022-08-19T13:15:59;5.88;;;3.45;;
61572;SDS011;47465;43.094;12.434;2022-08-19T13:18:28;7.47;;;3.22;;
61572;SDS011;47465;43.094;12.434;2022-08-19T13:20:54;6.53;;;3.30;;
61572;SDS011;47465;43.094;12.434;2022-08-19T13:23:21;8.68;;;3.38;;
61572;SDS011;47465;43.094;12.434;2022-08-19T13:25:55;5.70;;;3.35;;
61572;SDS011;47465;43.094;12.434;2022-08-19T13:28:23;6.82;;;3.40;;
61572;SDS011;47465;43.094;12.434;2022-08-19T13:30:50;5.55;;;3.30;;
61572;SDS011;47465;43.094;12.434;2022-08-19T13:33:49;6.57;;;3.25;;
61572;SDS011;47465;43.094;12.434;2022-08-19T13:36:15;6.97;;;4.18;;
61572;SDS011;47465;43.094;12.434;2022-08-19T13:38:41;5.90;;;3.47;;
61572;SDS011;47465;43.094;12.434;2022-08-19T13:41:07;5.50;;;3.40;;
61572;SDS011;47465;43.094;12.434;2022-08-19T13:43:33;5.07;;;3.28;;
61572;SDS011;47465;43.094;12.434;2022-08-19T13:45:59;6.32;;;3.17;;
61572;SDS011;47465;43.094;12.434;2022-08-19T13:48:33;7.68;;;3.35;;
61572;SDS011;47465;43.094;12.434;2022-08-19T13:51:01;6.30;;;3.33;;
61572;SDS011;47465;43.094;12.434;2022-08-19T13:53:30;6.57;;;3.78;;
61572;SDS011;47465;43.094;12.434;2022-08-19T13:55:56;7.43;;;3.42;;
61572;SDS011;47465;43.094;12.434;2022-08-19T13:58:22;5.18;;;3.30;;
61572;SDS011;47465;43.094;12.434;2022-08-19T14:00:48;8.32;;;4.03;;
61572;SDS011;47465;43.094;12.434;2022-08-19T14:03:15;10.07;;;4.07;;
61572;SDS011;47465;43.094;12.434;2022-08-19T14:05:41;14.00;;;3.53;;
61572;SDS011;47465;43.094;12.434;2022-08-19T14:08:09;8.40;;;2.40;;
61572;SDS011;47465;43.094;12.434;2022-08-19T14:10:35;7.97;;;2.95;;
61572;SDS011;47465;43.094;12.434;2022-08-19T14:13:02;13.38;;;4.10;;
61572;SDS011;47465;43.094;12.434;2022-08-19T14:15:28;9.93;;;4.07;;
61572;SDS011;47465;43.094;12.434;2022-08-19T14:17:55;9.98;;;3.45;;
61572;SDS011;47465;43.094;12.434;2022-08-19T14:20:21;10.45;;;3.50;;
61572;SDS011;47465;43.094;12.434;2022-08-19T14:22:47;6.55;;;3.05;;
61572;SDS011;47465;43.094;12.434;2022-08-19T14:25:16;6.60;;;3.10;;
61572;SDS011;47465;43.094;12.434;2022-08-19T14:27:43;8.30;;;3.50;;
61572;SDS011;47465;43.094;12.434;2022-08-19T14:30:12;5.28;;;2.95;;
61572;SDS011;47465;43.094;12.434;2022-08-19T14:32:40;8.63;;;2.85;;
61572;SDS011;47465;43.094;12.434;2022-08-19T14:35:08;8.38;;;3.20;;
61572;SDS011;47465;43.094;12.434;2022-08-19T14:37:35;9.73;;;5.10;;
61572;SDS011;47465;43.094;12.434;2022-08-19T14:40:01;6.32;;;3.92;;
61572;SDS011;47465;43.094;12.434;2022-08-19T14:42:30;8.18;;;3.40;;
61572;SDS011;47465;43.094;12.434;2022-08-19T14:44:57;9.43;;;3.25;;
61572;SDS011;47465;43.094;12.434;2022-08-19T14:47:24;6.22;;;3.30;;
61572;SDS011;47465;43.094;12.434;2022-08-19T14:49:49;6.40;;;3.38;;
61572;SDS011;47465;43.094;12.434;2022-08-19T14:52:15;9.40;;;3.83;;
61572;SDS011;47465;43.094;12.434;2022-08-19T14:54:41;14.65;;;4.50;;
61572;SDS011;47465;43.094;12.434;2022-08-19T14:57:10;11.50;;;4.60;;
61572;SDS011;47465;43.094;12.434;2022-08-19T14:59:38;8.32;;;4.35;;